createdAt,value
2018-02-15T00:00:59.210Z,28.48
2018-02-15T00:03:25.882Z,23.73
2018-02-15T00:05:52.631Z,26.60
2018-02-15T00:08:20.103Z,24.50
2018-02-15T00:10:47.527Z,24.25
2018-02-15T00:13:14.202Z,23.80
2018-02-15T00:15:41.643Z,22.58
2018-02-15T00:18:09.098Z,26.90
2018-02-15T00:20:35.808Z,28.02
2018-02-15T00:23:02.510Z,33.72
2018-02-15T00:25:29.904Z,27.45
2018-02-15T00:27:56.794Z,27.15
2018-02-15T00:30:24.205Z,31.58
2018-02-15T00:32:50.931Z,28.75
2018-02-15T00:35:18.329Z,22.83
2018-02-15T00:37:45.035Z,22.00
2018-02-15T00:40:12.454Z,27.98
2018-02-15T00:42:39.175Z,25.75
2018-02-15T00:45:05.908Z,22.23
2018-02-15T00:47:32.559Z,21.58
2018-02-15T00:49:59.278Z,23.95
2018-02-15T00:52:25.956Z,24.95
2018-02-15T00:54:52.687Z,26.25
2018-02-15T00:57:19.384Z,22.33
2018-02-15T00:59:46.798Z,25.00
2018-02-15T01:02:13.500Z,26.17
2018-02-15T01:04:40.996Z,26.37
2018-02-15T01:07:07.676Z,22.90
2018-02-15T01:09:41.245Z,21.80
2018-02-15T01:12:07.939Z,23.35
2018-02-15T01:14:35.373Z,23.92
2018-02-15T01:17:02.084Z,24.85
2018-02-15T01:19:28.780Z,22.98
2018-02-15T01:21:56.236Z,24.02
2018-02-15T01:24:22.922Z,26.90
2018-02-15T01:26:49.600Z,26.27
2018-02-15T01:29:16.296Z,24.98
2018-02-15T01:31:42.986Z,25.23
2018-02-15T01:34:09.718Z,19.55
2018-02-15T01:36:36.414Z,25.25
2018-02-15T01:39:03.901Z,23.70
2018-02-15T01:41:30.582Z,20.35
2018-02-15T01:43:57.246Z,26.25
2018-02-15T01:46:23.918Z,22.15
2018-02-15T01:48:50.603Z,22.75
2018-02-15T01:51:17.257Z,24.35
2018-02-15T01:53:43.995Z,23.77
2018-02-15T01:56:10.643Z,26.92
2018-02-15T01:58:37.401Z,23.60
2018-02-15T02:01:04.054Z,22.60
2018-02-15T02:03:31.500Z,21.25
2018-02-15T02:05:58.169Z,26.62
2018-02-15T02:08:25.578Z,20.88
2018-02-15T02:10:52.253Z,27.60
2018-02-15T02:13:19.668Z,25.15
2018-02-15T02:15:46.377Z,22.77
2018-02-15T02:18:13.839Z,26.58
2018-02-15T02:20:40.511Z,27.35
2018-02-15T02:23:07.186Z,23.70
2018-02-15T02:25:33.869Z,21.77
2018-02-15T02:28:00.565Z,20.73
2018-02-15T02:30:27.259Z,20.45
2018-02-15T02:32:53.942Z,22.98
2018-02-15T02:35:20.634Z,27.50
2018-02-15T02:37:48.071Z,22.05
2018-02-15T02:40:14.745Z,26.25
2018-02-15T02:42:41.446Z,24.65
2018-02-15T02:45:08.105Z,22.73
2018-02-15T02:47:35.779Z,21.98
2018-02-15T02:50:03.289Z,23.08
2018-02-15T02:52:36.940Z,25.67
2018-02-15T02:55:04.457Z,24.58
2018-02-15T02:57:31.107Z,24.70
2018-02-15T02:59:57.790Z,23.87
2018-02-15T03:02:25.202Z,21.77
2018-02-15T03:04:51.874Z,24.50
2018-02-15T03:07:18.668Z,26.17
2018-02-15T03:09:45.363Z,24.65
2018-02-15T03:12:12.077Z,22.98
2018-02-15T03:14:38.775Z,23.65
2018-02-15T03:17:06.183Z,24.30
2018-02-15T03:19:32.862Z,25.70
2018-02-15T03:21:59.527Z,20.92
2018-02-15T03:24:33.825Z,33.83
2018-02-15T03:27:00.516Z,34.17
2018-02-15T03:29:27.204Z,36.95
2018-02-15T03:31:53.876Z,36.67
2018-02-15T03:34:21.276Z,30.42
2018-02-15T03:36:47.940Z,27.77
2018-02-15T03:39:14.641Z,31.87
2018-02-15T03:41:41.314Z,27.20
2018-02-15T03:44:07.972Z,25.23
2018-02-15T03:46:34.619Z,25.60
2018-02-15T03:49:01.322Z,29.70
2018-02-15T03:51:27.984Z,28.67
2018-02-15T03:53:54.649Z,30.33
2018-02-15T03:56:21.334Z,30.92
2018-02-15T03:58:48.059Z,35.53
2018-02-15T04:01:15.494Z,36.00
2018-02-15T04:03:42.903Z,28.02
2018-02-15T04:06:09.591Z,31.73
2018-02-15T04:08:36.264Z,32.90
2018-02-15T04:11:03.668Z,31.98
2018-02-15T04:13:30.373Z,32.47
2018-02-15T04:15:57.786Z,36.13
2018-02-15T04:18:24.449Z,35.10
2018-02-15T04:20:52.668Z,33.50
2018-02-15T04:23:19.361Z,31.92
2018-02-15T04:25:46.051Z,33.28
2018-02-15T04:28:12.738Z,27.75
2018-02-15T04:30:39.418Z,37.40
2018-02-15T04:33:06.919Z,36.92
2018-02-15T04:35:33.623Z,39.20
2018-02-15T04:38:01.036Z,35.22
2018-02-15T04:40:27.739Z,37.30
2018-02-15T04:42:54.519Z,35.13
2018-02-15T04:45:21.212Z,37.00
2018-02-15T04:47:48.627Z,38.28
2018-02-15T04:50:15.296Z,32.00
2018-02-15T04:52:41.973Z,42.05
2018-02-15T04:55:09.397Z,41.15
2018-02-15T04:57:36.087Z,34.42
2018-02-15T05:00:02.878Z,41.28
2018-02-15T05:02:29.542Z,32.10
2018-02-15T05:04:56.215Z,37.72
2018-02-15T05:07:22.899Z,37.45
2018-02-15T05:09:49.580Z,32.97
2018-02-15T05:12:16.400Z,36.60
2018-02-15T05:14:43.104Z,34.83
2018-02-15T05:17:09.830Z,33.38
2018-02-15T05:19:36.547Z,33.63
2018-02-15T05:22:04.003Z,46.03
2018-02-15T05:24:32.494Z,32.45
2018-02-15T05:26:59.878Z,41.30
2018-02-15T05:29:26.581Z,34.08
2018-02-15T05:31:53.254Z,39.13
2018-02-15T05:34:20.694Z,31.62
2018-02-15T05:36:47.371Z,28.40
2018-02-15T05:39:14.063Z,30.30
2018-02-15T05:41:40.729Z,28.98
2018-02-15T05:44:07.435Z,33.33
2018-02-15T05:46:34.182Z,35.50
2018-02-15T05:49:00.837Z,35.60
2018-02-15T05:51:27.528Z,35.05
2018-02-15T05:53:54.439Z,136.68
2018-02-15T05:56:21.209Z,28.87
2018-02-15T05:58:48.649Z,29.23
2018-02-15T06:01:15.345Z,38.63
2018-02-15T06:03:42.040Z,35.60
2018-02-15T06:06:08.724Z,35.50
2018-02-15T06:08:35.409Z,36.55
2018-02-15T06:11:02.842Z,32.72
2018-02-15T06:13:29.504Z,42.67
2018-02-15T06:15:56.232Z,30.52
2018-02-15T06:18:22.923Z,34.97
2018-02-15T06:20:50.351Z,41.20
2018-02-15T06:23:17.017Z,34.53
2018-02-15T06:25:43.738Z,32.97
2018-02-15T06:28:10.411Z,33.35
2018-02-15T06:30:37.899Z,26.58
2018-02-15T06:33:04.569Z,35.40
2018-02-15T06:35:31.820Z,29.80
2018-02-15T06:37:58.491Z,27.90
2018-02-15T06:40:25.232Z,27.77
2018-02-15T06:42:51.969Z,23.60
2018-02-15T06:45:18.697Z,24.98
2018-02-15T06:47:45.358Z,25.85
2018-02-15T06:50:13.028Z,23.58
2018-02-15T06:52:39.735Z,22.20
2018-02-15T06:55:06.427Z,24.12
2018-02-15T06:57:33.184Z,21.35
2018-02-15T07:00:00.658Z,21.35
2018-02-15T07:02:27.432Z,17.58
2018-02-15T07:05:09.076Z,23.00
2018-02-15T07:07:35.855Z,20.63
2018-02-15T07:10:02.578Z,23.83
2018-02-15T07:12:30.036Z,21.10
2018-02-15T07:14:59.557Z,20.50
2018-02-15T07:17:26.269Z,19.50
2018-02-15T07:19:53.795Z,17.10
2018-02-15T07:22:20.523Z,17.53
2018-02-15T07:24:47.265Z,22.33
2018-02-15T07:27:14.039Z,24.40
2018-02-15T07:29:40.724Z,21.53
2018-02-15T07:32:09.055Z,21.10
2018-02-15T07:34:37.766Z,20.40
2018-02-15T07:37:06.136Z,19.83
2018-02-15T07:39:35.466Z,18.53
2018-02-15T07:42:03.805Z,17.13
2018-02-15T07:44:32.170Z,19.83
2018-02-15T07:47:00.574Z,18.27
2018-02-15T07:49:28.949Z,21.30
2018-02-15T07:51:57.311Z,24.30
2018-02-15T07:54:25.690Z,21.37
2018-02-15T07:56:54.118Z,16.93
2018-02-15T07:59:22.481Z,19.37
2018-02-15T08:01:50.834Z,21.00
2018-02-15T08:04:19.302Z,22.60
2018-02-15T08:06:47.660Z,22.20
2018-02-15T08:09:16.011Z,18.60
2018-02-15T08:11:44.378Z,18.03
2018-02-15T08:14:12.748Z,19.33
2018-02-15T08:16:41.061Z,22.17
2018-02-15T08:19:09.384Z,19.00
2018-02-15T08:21:37.753Z,26.97
2018-02-15T08:24:06.117Z,19.70
2018-02-15T08:26:34.485Z,17.90
2018-02-15T08:29:02.808Z,21.80
2018-02-15T08:31:31.138Z,18.80
2018-02-15T08:33:59.462Z,20.73
2018-02-15T08:36:27.788Z,18.20
2018-02-15T08:38:56.146Z,18.50
2018-02-15T08:41:24.460Z,19.23
2018-02-15T08:43:52.762Z,20.10
2018-02-15T08:46:21.108Z,20.63
2018-02-15T08:48:49.453Z,18.83
2018-02-15T08:51:17.779Z,20.90
2018-02-15T08:53:46.146Z,22.97
2018-02-15T08:56:14.469Z,19.73
2018-02-15T08:58:41.198Z,26.23
2018-02-15T09:01:07.919Z,22.97
2018-02-15T09:03:36.254Z,24.37
2018-02-15T09:06:04.658Z,22.90
2018-02-15T09:08:33.058Z,24.33
2018-02-15T09:11:01.430Z,23.83
2018-02-15T09:13:29.780Z,24.47
2018-02-15T09:15:58.122Z,25.53
2018-02-15T09:18:26.557Z,25.50
2018-02-15T09:20:53.237Z,23.40
2018-02-15T09:23:20.702Z,21.80
2018-02-15T09:25:48.130Z,25.10
2018-02-15T09:28:14.805Z,24.00
2018-02-15T09:30:43.301Z,29.53
2018-02-15T09:33:11.628Z,23.93
2018-02-15T09:35:42.026Z,24.67
2018-02-15T09:38:10.368Z,21.63
2018-02-15T09:40:38.685Z,27.23
2018-02-15T09:43:07.033Z,21.53
2018-02-15T09:45:35.361Z,25.53
2018-02-15T09:48:03.701Z,21.60
2018-02-15T09:50:32.064Z,25.90
2018-02-15T09:53:00.418Z,20.53
2018-02-15T09:55:28.752Z,23.83
2018-02-15T09:57:57.095Z,23.27
2018-02-15T10:00:25.427Z,21.60
2018-02-15T10:02:55.408Z,21.73
2018-02-15T10:05:23.726Z,25.43
2018-02-15T10:07:52.069Z,25.13
2018-02-15T10:10:21.467Z,24.20
2018-02-15T10:12:48.179Z,21.60
2018-02-15T10:15:14.908Z,22.00
2018-02-15T10:17:43.309Z,20.63
2018-02-15T10:20:10.025Z,19.73
2018-02-15T10:22:38.389Z,22.07
2018-02-15T10:25:06.753Z,20.80
2018-02-15T10:27:35.128Z,19.73
2018-02-15T10:30:03.504Z,25.67
2018-02-15T10:32:31.831Z,21.87
2018-02-15T10:35:00.187Z,22.97
2018-02-15T10:37:28.546Z,20.77
2018-02-15T10:39:56.931Z,18.53
2018-02-15T10:42:25.253Z,19.57
2018-02-15T10:44:53.576Z,18.03
2018-02-15T10:47:22.025Z,24.80
2018-02-15T10:49:50.398Z,23.23
2018-02-15T10:52:18.895Z,16.17
2018-02-15T10:54:47.262Z,19.40
2018-02-15T10:57:16.402Z,16.53
2018-02-15T10:59:45.104Z,15.77
2018-02-15T11:02:19.603Z,15.10
2018-02-15T11:04:53.996Z,20.73
2018-02-15T11:07:22.378Z,12.43
2018-02-15T11:09:50.712Z,24.73
2018-02-15T11:12:19.056Z,16.40
2018-02-15T11:14:48.561Z,14.43
2018-02-15T11:17:16.907Z,17.80
2018-02-15T11:19:45.274Z,14.03
2018-02-15T11:22:14.550Z,14.83
2018-02-15T11:24:44.002Z,16.03
2018-02-15T11:27:12.392Z,14.93
2018-02-15T11:29:40.752Z,14.00
2018-02-15T11:32:09.148Z,15.73
2018-02-15T11:34:37.294Z,15.87
2018-02-15T11:37:04.734Z,13.80
2018-02-15T11:39:33.051Z,14.97
2018-02-15T11:42:01.384Z,19.60
2018-02-15T11:44:30.779Z,18.07
2018-02-15T11:47:00.096Z,16.27
2018-02-15T11:49:29.431Z,14.97
2018-02-15T11:51:57.801Z,19.00
2018-02-15T11:54:26.130Z,17.60
2018-02-15T11:56:54.482Z,15.67
2018-02-15T11:59:22.806Z,18.17
2018-02-15T12:01:49.523Z,17.73
2018-02-15T12:04:16.311Z,14.53
2018-02-15T12:06:43.024Z,14.67
2018-02-15T12:09:09.967Z,15.80
2018-02-15T12:11:37.799Z,17.33
2018-02-15T12:14:05.349Z,15.40
2018-02-15T12:16:32.055Z,14.63
2018-02-15T12:18:58.766Z,17.10
2018-02-15T12:21:25.739Z,17.00
2018-02-15T12:23:52.424Z,14.93
2018-02-15T12:26:19.360Z,18.87
2018-02-15T12:28:46.085Z,14.47
2018-02-15T12:31:12.827Z,13.83
2018-02-15T12:33:39.533Z,15.37
2018-02-15T12:36:06.981Z,12.70
2018-02-15T12:38:34.555Z,14.67
2018-02-15T12:41:03.309Z,12.30
2018-02-15T12:43:30.003Z,16.20
2018-02-15T12:45:56.731Z,14.57
2018-02-15T12:48:24.273Z,15.43
2018-02-15T12:50:50.995Z,13.60
2018-02-15T12:53:17.704Z,13.53
2018-02-15T12:55:44.442Z,12.00
2018-02-15T12:58:11.182Z,12.37
2018-02-15T13:00:37.866Z,12.37
2018-02-15T13:03:04.586Z,12.70
2018-02-15T13:05:31.387Z,15.70
2018-02-15T13:07:58.900Z,13.60
2018-02-15T13:10:25.599Z,14.33
2018-02-15T13:13:11.175Z,18.80
2018-02-15T13:15:56.856Z,15.50
2018-02-15T13:18:23.618Z,12.47
2018-02-15T13:20:51.981Z,12.00
2018-02-15T13:23:20.409Z,16.77
2018-02-15T13:25:48.892Z,15.70
2018-02-15T13:28:29.609Z,13.63
2018-02-15T13:30:58.053Z,16.80
2018-02-15T13:33:26.431Z,16.80
2018-02-15T13:35:54.875Z,12.97
2018-02-15T13:38:23.310Z,22.77
2018-02-15T13:40:51.737Z,14.70
2018-02-15T13:43:20.092Z,17.50
2018-02-15T13:45:47.960Z,13.93
2018-02-15T13:48:14.706Z,15.80
2018-02-15T13:50:41.498Z,16.37
2018-02-15T13:53:08.289Z,14.50
2018-02-15T13:55:34.993Z,15.70
2018-02-15T13:58:01.727Z,15.23
2018-02-15T14:00:29.282Z,13.90
2018-02-15T14:02:58.901Z,14.50
2018-02-15T14:05:26.370Z,14.32
2018-02-15T14:07:53.824Z,15.90
2018-02-15T14:10:21.307Z,15.45
2018-02-15T14:12:48.068Z,15.50
2018-02-15T14:15:14.836Z,19.47
2018-02-15T14:17:41.616Z,15.93
2018-02-15T14:20:09.145Z,19.08
2018-02-15T14:22:35.878Z,18.80
2018-02-15T14:25:02.652Z,15.43
2018-02-15T14:27:29.529Z,16.35
2018-02-15T14:29:57.010Z,13.90
2018-02-15T14:32:23.748Z,17.90
2018-02-15T14:34:50.487Z,17.75
2018-02-15T14:37:18.015Z,21.15
2018-02-15T14:39:44.839Z,17.35
2018-02-15T14:42:11.579Z,17.25
2018-02-15T14:44:38.297Z,15.25
2018-02-15T14:47:07.017Z,16.17
2018-02-15T14:49:33.779Z,15.63
2018-02-15T14:52:00.587Z,17.20
2018-02-15T14:54:27.564Z,18.60
2018-02-15T14:56:54.249Z,17.80
2018-02-15T14:59:21.774Z,16.52
2018-02-15T15:01:48.556Z,17.62
2018-02-15T15:04:16.040Z,17.52
2018-02-15T15:06:42.767Z,23.35
2018-02-15T15:09:10.293Z,19.02
2018-02-15T15:11:37.032Z,21.00
2018-02-15T15:14:03.760Z,22.60
2018-02-15T15:16:30.456Z,16.77
2018-02-15T15:18:57.906Z,17.05
2018-02-15T15:21:24.594Z,19.08
2018-02-15T15:23:51.290Z,21.40
2018-02-15T15:26:17.998Z,38.17
2018-02-15T15:28:44.742Z,22.33
2018-02-15T15:31:11.544Z,22.55
2018-02-15T15:33:39.137Z,17.42
2018-02-15T15:36:05.822Z,17.12
2018-02-15T15:38:32.565Z,21.65
2018-02-15T15:40:59.233Z,20.60
2018-02-15T15:43:27.174Z,21.37
2018-02-15T15:45:53.887Z,24.40
2018-02-15T15:48:20.651Z,28.08
2018-02-15T15:50:47.350Z,21.87
2018-02-15T15:53:14.168Z,25.20
2018-02-15T15:55:40.909Z,23.65
2018-02-15T15:58:07.653Z,23.62
2018-02-15T16:00:34.357Z,26.58
2018-02-15T16:03:01.066Z,24.33
2018-02-15T16:05:28.498Z,28.15
2018-02-15T16:07:55.272Z,26.58
2018-02-15T16:10:22.695Z,27.42
2018-02-15T16:12:49.458Z,25.12
2018-02-15T16:15:19.108Z,27.35
2018-02-15T16:17:45.824Z,25.20
2018-02-15T16:20:28.202Z,24.98
2018-02-15T16:22:55.089Z,27.98
2018-02-15T16:25:22.517Z,25.77
2018-02-15T16:27:51.346Z,27.65
2018-02-15T16:30:18.079Z,24.70
2018-02-15T16:32:45.567Z,28.10
2018-02-15T16:35:12.353Z,28.35
2018-02-15T16:37:39.075Z,25.98
2018-02-15T16:40:05.808Z,33.75
2018-02-15T16:42:32.506Z,38.08
2018-02-15T16:44:59.205Z,27.02
2018-02-15T16:47:25.910Z,33.25
2018-02-15T16:49:53.414Z,30.83
2018-02-15T16:52:20.143Z,29.77
2018-02-15T16:54:46.813Z,26.35
2018-02-15T16:57:13.593Z,29.20
2018-02-15T16:59:41.027Z,37.20
2018-02-15T17:02:07.764Z,36.38
2018-02-15T17:04:34.517Z,39.00
2018-02-15T17:07:01.262Z,32.03
2018-02-15T17:09:28.005Z,37.35
2018-02-15T17:11:54.798Z,37.60
2018-02-15T17:14:21.512Z,38.08
2018-02-15T17:16:49.000Z,33.17
2018-02-15T17:19:15.700Z,36.00
2018-02-15T17:21:42.458Z,35.95
2018-02-15T17:24:09.178Z,38.47
2018-02-15T17:26:35.876Z,36.90
2018-02-15T17:29:02.619Z,38.38
2018-02-15T17:31:29.339Z,34.58
2018-02-15T17:33:56.200Z,40.00
2018-02-15T17:36:23.656Z,38.40
2018-02-15T17:38:51.087Z,37.97
2018-02-15T17:41:18.776Z,38.60
2018-02-15T17:43:46.206Z,33.53
2018-02-15T17:46:12.972Z,34.08
2018-02-15T17:48:39.673Z,41.65
2018-02-15T17:51:06.399Z,36.55
2018-02-15T17:53:33.184Z,34.65
2018-02-15T17:55:59.873Z,34.70
2018-02-15T17:58:27.314Z,45.75
2018-02-15T18:00:54.044Z,41.60
2018-02-15T18:03:20.784Z,41.15
2018-02-15T18:05:47.457Z,35.80
2018-02-15T18:08:14.931Z,42.28
2018-02-15T18:10:41.672Z,46.22
2018-02-15T18:13:09.315Z,42.20
2018-02-15T18:15:37.125Z,45.03
2018-02-15T18:18:03.866Z,59.47
2018-02-15T18:20:30.653Z,51.13
2018-02-15T18:22:57.523Z,51.00
2018-02-15T18:25:24.199Z,44.17
2018-02-15T18:27:51.031Z,42.38
2018-02-15T18:30:17.758Z,37.97
2018-02-15T18:32:45.171Z,43.30
2018-02-15T18:35:11.850Z,41.50
2018-02-15T18:37:38.599Z,37.40
2018-02-15T18:40:05.306Z,37.20
2018-02-15T18:42:31.958Z,42.33
2018-02-15T18:44:58.662Z,48.17
2018-02-15T18:47:25.392Z,41.80
2018-02-15T18:49:52.150Z,40.12
2018-02-15T18:52:18.895Z,42.95
2018-02-15T18:54:45.658Z,44.22
2018-02-15T18:57:12.402Z,46.50
2018-02-15T18:59:39.189Z,52.33
2018-02-15T19:02:05.987Z,42.17
2018-02-15T19:04:32.737Z,44.65
2018-02-15T19:06:59.469Z,37.90
2018-02-15T19:09:26.222Z,40.28
2018-02-15T19:11:52.924Z,39.33
2018-02-15T19:14:20.451Z,46.15
2018-02-15T19:16:47.185Z,42.92
2018-02-15T19:19:13.930Z,38.00
2018-02-15T19:21:40.677Z,39.80
2018-02-15T19:24:07.413Z,39.17
2018-02-15T19:26:34.154Z,40.38
2018-02-15T19:29:00.870Z,38.97
2018-02-15T19:31:27.614Z,43.35
2018-02-15T19:33:54.371Z,41.75
2018-02-15T19:36:21.116Z,54.28
2018-02-15T19:38:47.854Z,50.08
2018-02-15T19:41:14.533Z,43.45
2018-02-15T19:43:41.298Z,37.08
2018-02-15T19:46:08.215Z,41.50
2018-02-15T19:48:34.958Z,42.65
2018-02-15T19:51:01.688Z,45.17
2018-02-15T19:53:28.494Z,41.55
2018-02-15T19:55:55.206Z,45.25
2018-02-15T19:58:21.931Z,46.88
2018-02-15T20:00:48.697Z,61.20
2018-02-15T20:03:15.671Z,49.08
2018-02-15T20:05:43.139Z,41.80
2018-02-15T20:08:09.911Z,45.45
2018-02-15T20:10:36.775Z,50.55
2018-02-15T20:13:03.663Z,57.70
2018-02-15T20:15:36.445Z,52.38
2018-02-15T20:18:04.036Z,53.58
2018-02-15T20:20:31.526Z,47.45
2018-02-15T20:22:58.280Z,51.65
2018-02-15T20:25:25.093Z,47.55
2018-02-15T20:27:58.621Z,49.03
2018-02-15T20:30:25.338Z,42.08
2018-02-15T20:32:52.785Z,50.20
2018-02-15T20:35:19.470Z,44.55
2018-02-15T20:51:11.012Z,47.78
2018-02-15T20:53:43.825Z,40.33
2018-02-15T20:56:10.564Z,39.88
2018-02-15T20:58:37.348Z,42.78
2018-02-15T21:01:04.837Z,44.00
2018-02-15T21:03:31.588Z,52.55
2018-02-15T21:05:58.355Z,43.85
2018-02-15T21:08:25.067Z,44.33
2018-02-15T21:10:51.813Z,43.00
2018-02-15T21:13:18.559Z,44.47
2018-02-15T21:15:45.299Z,40.97
2018-02-15T21:18:12.093Z,38.38
2018-02-15T21:20:38.838Z,37.60
2018-02-15T21:23:05.645Z,35.72
2018-02-15T21:25:32.371Z,36.35
2018-02-15T21:27:59.182Z,38.97
2018-02-15T21:30:26.098Z,40.15
2018-02-15T21:32:52.829Z,45.83
2018-02-15T21:35:19.650Z,40.47
2018-02-15T21:37:46.882Z,42.22
2018-02-15T21:40:13.730Z,38.00
2018-02-15T21:42:40.528Z,38.08
2018-02-15T21:45:07.240Z,37.53
2018-02-15T21:47:34.827Z,37.97
2018-02-15T21:50:01.592Z,34.47
2018-02-15T21:52:28.344Z,36.25
2018-02-15T21:54:55.345Z,36.78
2018-02-15T21:57:23.184Z,38.67
2018-02-15T21:59:49.972Z,36.75
2018-02-15T22:02:23.780Z,36.97
2018-02-15T22:04:50.567Z,39.20
2018-02-15T22:07:17.477Z,36.60
2018-02-15T22:09:44.177Z,36.85
2018-02-15T22:12:10.907Z,35.15
2018-02-15T22:14:37.645Z,40.08
2018-02-15T22:17:04.495Z,37.85
2018-02-15T22:19:31.180Z,34.92
2018-02-15T22:21:58.639Z,35.55
2018-02-15T22:24:26.126Z,43.72
2018-02-15T22:26:53.022Z,38.85
2018-02-15T22:29:19.751Z,36.28
2018-02-15T22:31:46.530Z,36.53
2018-02-15T22:34:14.058Z,36.40
2018-02-15T22:36:40.955Z,42.13
2018-02-15T22:39:07.654Z,34.92
2018-02-15T22:41:34.423Z,39.13
2018-02-15T22:44:01.127Z,37.03
2018-02-15T22:46:27.857Z,43.72
2018-02-15T22:48:54.561Z,43.03
2018-02-15T22:51:22.137Z,40.35
2018-02-15T22:53:49.551Z,36.13
2018-02-15T22:56:16.320Z,36.35
2018-02-15T22:58:43.029Z,40.60
2018-02-15T23:01:09.717Z,47.47
2018-02-15T23:03:37.266Z,37.15
2018-02-15T23:06:05.988Z,44.10
2018-02-15T23:08:33.584Z,44.28
2018-02-15T23:11:00.348Z,37.13
2018-02-15T23:13:27.141Z,40.42
2018-02-15T23:15:53.903Z,38.90
2018-02-15T23:18:20.607Z,37.40
2018-02-15T23:20:47.345Z,45.75
2018-02-15T23:23:14.156Z,35.50
2018-02-15T23:25:40.832Z,46.10
2018-02-15T23:28:07.705Z,40.42
2018-02-15T23:30:35.216Z,45.78
2018-02-15T23:33:01.984Z,45.28
2018-02-15T23:35:29.438Z,37.47
2018-02-15T23:37:56.149Z,41.00
2018-02-15T23:40:22.865Z,42.25
2018-02-15T23:42:49.649Z,45.80
2018-02-15T23:45:16.343Z,56.85
2018-02-15T23:47:43.787Z,48.95
2018-02-15T23:50:10.503Z,49.17
2018-02-15T23:52:38.260Z,41.67
2018-02-15T23:55:05.006Z,42.45
2018-02-15T23:57:31.750Z,48.10
2018-02-15T23:59:58.436Z,52.53
